Wetterdaten: Woche 14.03.16 - 20.03.16 (KW11)
Datum Zeit Auen-Temp. Temp gefhlt Luftfeuchte Luftdruck Regen Wind Richtung Sonnenschein Taupunkt Windben
14.03.2016 00:00 1,1 C 0,3 C 86 % 1023,8 hPa 0,0 mm 13,1 km/h (3 Bft) O-NO 0,00 h -1,0 C 18,3 km/h (3 Bft)
14.03.2016 01:00 1,0 C 0,2 C 86 % 1023,6 hPa 0,0 mm 15,2 km/h (3 Bft) NO 0,00 h -1,1 C 21,0 km/h (4 Bft)
14.03.2016 02:00 0,9 C -0,0 C 86 % 1023,1 hPa 0,0 mm 14,0 km/h (3 Bft) O-NO 0,00 h -1,1 C 13,5 km/h (3 Bft)
14.03.2016 03:00 0,7 C -0,2 C 88 % 1022,6 hPa 0,0 mm 12,8 km/h (3 Bft) O-NO 0,00 h -1,1 C 20,4 km/h (4 Bft)
14.03.2016 04:00 0,3 C -0,6 C 89 % 1022,4 hPa 0,0 mm 13,0 km/h (3 Bft) O-NO 0,00 h -1,3 C 16,2 km/h (3 Bft)
14.03.2016 05:00 -0,0 C -0,8 C 87 % 1022,5 hPa 0,0 mm 10,6 km/h (2 Bft) NO 0,00 h -2,0 C 12,0 km/h (2 Bft)
14.03.2016 06:00 -0,2 C -1,0 C 87 % 1022,8 hPa 0,0 mm 10,6 km/h (2 Bft) O-NO 0,00 h -2,0 C 12,2 km/h (2 Bft)
14.03.2016 07:00 -0,4 C -1,3 C 87 % 1023,3 hPa 0,0 mm 12,8 km/h (3 Bft) NO 0,00 h -2,3 C 16,1 km/h (3 Bft)
14.03.2016 08:00 -0,5 C -1,3 C 85 % 1023,5 hPa 0,0 mm 15,8 km/h (3 Bft) O-NO 0,00 h -2,7 C 20,8 km/h (4 Bft)
14.03.2016 09:00 -0,4 C -1,0 C 85 % 1023,7 hPa 0,0 mm 14,6 km/h (3 Bft) O-NO 0,00 h -2,6 C 19,4 km/h (3 Bft)
14.03.2016 10:00 0,6 C 1,1 C 84 % 1023,7 hPa 0,0 mm 14,2 km/h (3 Bft) O-NO 0,00 h -1,8 C 17,4 km/h (3 Bft)
14.03.2016 11:00 1,8 C 2,8 C 79 % 1023,6 hPa 0,0 mm 13,6 km/h (3 Bft) NO 0,00 h -1,5 C 16,4 km/h (3 Bft)
14.03.2016 12:00 2,8 C 4,5 C 73 % 1023,7 hPa 0,0 mm 15,8 km/h (3 Bft) O-NO 0,00 h -1,5 C 19,3 km/h (3 Bft)
14.03.2016 13:00 3,8 C 6,1 C 69 % 1023,7 hPa 0,0 mm 12,9 km/h (3 Bft) O-NO 0,00 h -1,4 C 17,0 km/h (3 Bft)
14.03.2016 14:00 3,9 C 5,2 C 66 % 1023,4 hPa 0,0 mm 14,4 km/h (3 Bft) O-NO 0,00 h -1,8 C 18,4 km/h (3 Bft)
14.03.2016 15:00 4,2 C 5,3 C 65 % 1022,8 hPa 0,0 mm 11,3 km/h (2 Bft) O-NO 0,00 h -1,9 C 13,6 km/h (3 Bft)
14.03.2016 16:00 4,2 C 4,8 C 63 % 1022,5 hPa 0,0 mm 9,3 km/h (2 Bft) O-NO 0,00 h -2,1 C 9,3 km/h (2 Bft)
14.03.2016 17:00 3,5 C 3,5 C 66 % 1022,4 hPa 0,0 mm 5,5 km/h (1 Bft) O-NO 0,00 h -2,3 C 8,6 km/h (2 Bft)
14.03.2016 18:00 2,8 C 2,4 C 67 % 1022,7 hPa 0,0 mm 8,4 km/h (2 Bft) O-NO 0,00 h -2,7 C 10,2 km/h (2 Bft)
14.03.2016 19:00 1,6 C 1,2 C 70 % 1022,7 hPa 0,0 mm 1,9 km/h (1 Bft) O-NO 0,00 h -3,3 C 2,3 km/h (1 Bft)
14.03.2016 20:00 0,3 C -0,4 C 75 % 1022,6 hPa 0,0 mm 1,4 km/h (1 Bft) O-SO 0,00 h -3,7 C 2,9 km/h (1 Bft)
14.03.2016 21:00 -0,7 C -1,4 C 77 % 1022,1 hPa 0,0 mm 1,0 km/h (0 Bft) O-SO 0,00 h -4,3 C 1,7 km/h (1 Bft)
14.03.2016 22:00 -1,8 C -2,5 C 79 % 1021,7 hPa 0,0 mm 1,0 km/h (0 Bft) S 0,00 h -4,9 C 1,5 km/h (1 Bft)
14.03.2016 23:00 -2,6 C -3,2 C 82 % 1021,4 hPa 0,0 mm 0,7 km/h (0 Bft) SO 0,00 h -5,4 C 0,4 km/h (0 Bft)
15.03.2016 00:00 -3,1 C -3,6 C 84 % 1021,2 hPa 0,0 mm 0,6 km/h (0 Bft) SO 0,00 h -5,4 C 1,1 km/h (1 Bft)
15.03.2016 01:00 -4,0 C -4,5 C 84 % 1021,0 hPa 0,0 mm 0,0 km/h (0 Bft) N 0,00 h -6,3 C 0,0 km/h (0 Bft)
15.03.2016 02:00 -4,1 C -4,7 C 86 % 1020,8 hPa 0,0 mm 0,0 km/h (0 Bft) N 0,00 h -6,1 C 0,0 km/h (0 Bft)
15.03.2016 03:00 -4,4 C -4,9 C 86 % 1020,3 hPa 0,0 mm 0,0 km/h (0 Bft) N 0,00 h -6,4 C 0,0 km/h (0 Bft)
15.03.2016 04:00 -4,1 C -4,5 C 87 % 1020,3 hPa 0,0 mm 0,9 km/h (0 Bft) S 0,00 h -5,9 C 1,1 km/h (1 Bft)
15.03.2016 05:00 -3,3 C -3,8 C 87 % 1020,2 hPa 0,0 mm 3,4 km/h (1 Bft) SW 0,00 h -5,1 C 5,7 km/h (1 Bft)
15.03.2016 06:00 -2,6 C -3,0 C 88 % 1020,1 hPa 0,0 mm 3,6 km/h (1 Bft) S 0,00 h -4,3 C 4,8 km/h (1 Bft)
15.03.2016 07:00 -2,2 C -2,3 C 83 % 1020,1 hPa 0,0 mm 0,7 km/h (0 Bft) SO 0,00 h -4,7 C 0,5 km/h (0 Bft)
15.03.2016 08:00 -0,9 C -0,3 C 83 % 1019,6 hPa 0,0 mm 1,3 km/h (1 Bft) W-SW 0,00 h -3,4 C 1,7 km/h (1 Bft)
15.03.2016 09:00 1,0 C 2,2 C 80 % 1019,5 hPa 0,0 mm 2,8 km/h (1 Bft) NW 0,00 h -2,0 C 4,7 km/h (1 Bft)
15.03.2016 10:00 1,6 C 2,4 C 78 % 1019,7 hPa 0,0 mm 6,3 km/h (2 Bft) N-NW 0,00 h -1,8 C 9,7 km/h (2 Bft)
15.03.2016 11:00 0,4 C 1,1 C 78 % 1019,4 hPa 0,0 mm 4,4 km/h (1 Bft) N-NW 0,00 h -3,0 C 5,0 km/h (1 Bft)
15.03.2016 12:00 -0,0 C 1,0 C 81 % 1018,8 hPa 0,0 mm 1,0 km/h (0 Bft) O-NO 0,00 h -2,9 C 1,7 km/h (1 Bft)
15.03.2016 13:00 0,6 C 1,9 C 82 % 1018,4 hPa 0,0 mm 0,1 km/h (0 Bft) N 0,00 h -2,1 C 0,0 km/h (0 Bft)
15.03.2016 14:00 0,6 C 1,6 C 82 % 1018,0 hPa 0,0 mm 0,0 km/h (0 Bft) N 0,00 h -2,1 C 0,0 km/h (0 Bft)
15.03.2016 15:00 0,3 C 1,0 C 83 % 1017,7 hPa 0,0 mm 0,0 km/h (0 Bft) N 0,00 h -2,2 C 0,0 km/h (0 Bft)
15.03.2016 16:00 -0,1 C 0,7 C 83 % 1017,7 hPa 0,7 mm 0,1 km/h (0 Bft) N 0,00 h -2,6 C 0,6 km/h (0 Bft)
15.03.2016 17:00 -0,7 C -0,5 C 83 % 1018,1 hPa 0,0 mm 2,8 km/h (1 Bft) N-NO 0,00 h -3,2 C 3,6 km/h (1 Bft)
15.03.2016 18:00 -1,3 C -1,4 C 83 % 1018,2 hPa 0,0 mm 3,4 km/h (1 Bft) O-NO 0,00 h -3,7 C 5,2 km/h (1 Bft)
15.03.2016 19:00 -1,4 C -1,7 C 86 % 1018,2 hPa 0,0 mm 5,2 km/h (1 Bft) O-NO 0,00 h -3,4 C 7,7 km/h (2 Bft)
15.03.2016 20:00 -1,6 C -1,7 C 87 % 1018,2 hPa 0,0 mm 2,9 km/h (1 Bft) NO 0,00 h -3,5 C 3,0 km/h (1 Bft)
15.03.2016 21:00 -1,7 C -1,9 C 89 % 1018,0 hPa 0,0 mm 2,4 km/h (1 Bft) NO 0,00 h -3,3 C 3,4 km/h (1 Bft)
15.03.2016 22:00 -2,0 C -2,2 C 87 % 1017,9 hPa 0,0 mm 3,3 km/h (1 Bft) O-NO 0,00 h -3,9 C 5,3 km/h (1 Bft)
15.03.2016 23:00 -2,1 C -2,4 C 87 % 1017,8 hPa 0,0 mm 4,3 km/h (1 Bft) O-NO 0,00 h -3,9 C 8,0 km/h (2 Bft)
16.03.2016 00:00 -2,3 C -2,5 C 88 % 1017,5 hPa 0,0 mm 4,2 km/h (1 Bft) N-NO 0,00 h -3,9 C 7,0 km/h (2 Bft)
16.03.2016 01:00 -2,4 C -2,8 C 86 % 1017,3 hPa 0,0 mm 5,2 km/h (1 Bft) O-NO 0,00 h -4,4 C 8,0 km/h (2 Bft)
16.03.2016 02:00 -2,5 C -3,1 C 87 % 1017,2 hPa 0,0 mm 7,0 km/h (2 Bft) O-NO 0,00 h -4,4 C 8,2 km/h (2 Bft)
16.03.2016 03:00 -2,5 C -3,2 C 89 % 1016,8 hPa 0,0 mm 7,9 km/h (2 Bft) O-NO 0,00 h -4,1 C 13,6 km/h (3 Bft)
16.03.2016 04:00 -2,5 C -3,2 C 87 % 1016,5 hPa 0,0 mm 8,9 km/h (2 Bft) NO 0,00 h -4,4 C 14,4 km/h (3 Bft)
16.03.2016 05:00 -2,6 C -3,3 C 89 % 1016,4 hPa 0,0 mm 8,4 km/h (2 Bft) O-NO 0,00 h -4,1 C 9,1 km/h (2 Bft)
16.03.2016 06:00 -2,7 C -3,3 C 89 % 1016,4 hPa 0,0 mm 6,8 km/h (2 Bft) O-NO 0,00 h -4,3 C 10,1 km/h (2 Bft)
16.03.2016 07:00 -2,9 C -3,3 C 86 % 1016,5 hPa 0,0 mm 8,1 km/h (2 Bft) O-NO 0,00 h -4,9 C 10,4 km/h (2 Bft)
16.03.2016 08:00 -2,9 C -2,9 C 86 % 1016,8 hPa 0,0 mm 7,2 km/h (2 Bft) O-NO 0,00 h -4,9 C 9,9 km/h (2 Bft)
16.03.2016 09:00 -2,4 C -1,6 C 85 % 1017,4 hPa 0,0 mm 6,4 km/h (2 Bft) N-NO 0,00 h -4,6 C 8,3 km/h (2 Bft)
16.03.2016 10:00 -1,4 C 0,7 C 85 % 1018,5 hPa 0,0 mm 5,9 km/h (2 Bft) O-NO 0,00 h -3,7 C 8,8 km/h (2 Bft)
16.03.2016 11:00 0,2 C 5,1 C 82 % 1018,5 hPa 0,7 mm 6,1 km/h (2 Bft) O-NO 0,33 h -2,5 C 6,6 km/h (2 Bft)
16.03.2016 12:00 1,5 C 4,9 C 78 % 1020,1 hPa 0,7 mm 10,9 km/h (2 Bft) O-NO 0,00 h -1,9 C 14,7 km/h (3 Bft)
16.03.2016 13:00 2,9 C 7,1 C 75 % 1020,5 hPa 2,7 mm 11,8 km/h (2 Bft) NO 0,25 h -1,1 C 14,0 km/h (3 Bft)
16.03.2016 14:00 3,2 C 6,3 C 74 % 1020,4 hPa 2,7 mm 12,3 km/h (3 Bft) O-NO 0,12 h -1,1 C 15,7 km/h (3 Bft)
16.03.2016 15:00 3,4 C 6,1 C 74 % 1020,1 hPa 1,4 mm 8,6 km/h (2 Bft) O-NO 0,25 h -0,8 C 9,5 km/h (2 Bft)
16.03.2016 16:00 3,5 C 6,8 C 75 % 1020,0 hPa 0,0 mm 5,6 km/h (1 Bft) O-NO 0,67 h -0,5 C 8,2 km/h (2 Bft)
16.03.2016 17:00 2,4 C 3,4 C 78 % 1020,2 hPa 0,0 mm 1,5 km/h (1 Bft) O-SO 0,00 h -1,1 C 2,7 km/h (1 Bft)
16.03.2016 18:00 0,8 C 0,3 C 81 % 1020,3 hPa 0,0 mm 1,5 km/h (1 Bft) O-SO 0,00 h -2,1 C 2,1 km/h (1 Bft)
16.03.2016 19:00 -0,5 C -1,0 C 87 % 1020,9 hPa 0,0 mm 1,0 km/h (0 Bft) SO 0,00 h -2,5 C 0,9 km/h (0 Bft)
16.03.2016 20:00 -1,4 C -1,9 C 89 % 1020,9 hPa 0,0 mm 0,9 km/h (0 Bft) S 0,00 h -3,0 C 2,0 km/h (1 Bft)
16.03.2016 21:00 -1,9 C -2,3 C 91 % 1021,0 hPa 0,0 mm 1,3 km/h (1 Bft) S-SO 0,00 h -3,2 C 1,3 km/h (1 Bft)
16.03.2016 22:00 -3,3 C -3,6 C 90 % 1021,0 hPa 0,0 mm 0,3 km/h (0 Bft) SO 0,00 h -4,8 C 0,8 km/h (0 Bft)
16.03.2016 23:00 -3,8 C -4,1 C 89 % 1021,2 hPa 0,0 mm 1,2 km/h (1 Bft) S-SO 0,00 h -5,3 C 2,4 km/h (1 Bft)
17.03.2016 00:00 -4,1 C -4,4 C 89 % 1020,9 hPa 0,0 mm 0,9 km/h (0 Bft) O-SO 0,00 h -5,7 C 1,7 km/h (1 Bft)
17.03.2016 01:00 -4,5 C -4,8 C 91 % 1020,8 hPa 0,0 mm 1,2 km/h (1 Bft) SW 0,00 h -5,8 C 1,8 km/h (1 Bft)
17.03.2016 02:00 -5,1 C -5,6 C 90 % 1020,6 hPa 0,0 mm 0,3 km/h (0 Bft) N 0,00 h -6,5 C 0,0 km/h (0 Bft)
17.03.2016 03:00 -6,2 C -6,6 C 89 % 1020,6 hPa 0,0 mm 0,2 km/h (0 Bft) S 0,00 h -7,7 C 0,3 km/h (0 Bft)
17.03.2016 04:00 -6,2 C -6,4 C 87 % 1020,6 hPa 0,0 mm 0,1 km/h (0 Bft) N 0,00 h -8,0 C 0,0 km/h (0 Bft)
17.03.2016 05:00 -6,1 C -6,5 C 89 % 1020,5 hPa 0,0 mm 0,0 km/h (0 Bft) N 0,00 h -7,6 C 0,0 km/h (0 Bft)
17.03.2016 06:00 -6,5 C -6,8 C 87 % 1020,4 hPa 0,0 mm 0,1 km/h (0 Bft) N 0,00 h -8,3 C 0,0 km/h (0 Bft)
17.03.2016 07:00 -5,3 C -5,2 C 87 % 1021,1 hPa 0,0 mm 0,1 km/h (0 Bft) N 0,00 h -7,1 C 0,0 km/h (0 Bft)
17.03.2016 08:00 -3,3 C 6,1 C 86 % 1021,7 hPa 0,0 mm 0,1 km/h (0 Bft) N 1,00 h -5,3 C 0,0 km/h (0 Bft)
17.03.2016 09:00 0,5 C 12,8 C 87 % 1023,3 hPa 0,0 mm 0,1 km/h (0 Bft) N 1,00 h -1,4 C 0,3 km/h (0 Bft)
17.03.2016 10:00 5,6 C 15,2 C 81 % 1024,2 hPa 0,0 mm 0,4 km/h (0 Bft) N 1,00 h 2,5 C 0,5 km/h (0 Bft)
17.03.2016 11:00 8,7 C 16,3 C 64 % 1024,4 hPa 0,0 mm 3,6 km/h (1 Bft) NW 0,90 h 2,3 C 6,2 km/h (2 Bft)
17.03.2016 12:00 9,5 C 14,6 C 58 % 1024,2 hPa 0,0 mm 4,8 km/h (1 Bft) O-NO 0,58 h 1,7 C 6,3 km/h (2 Bft)
17.03.2016 13:00 9,0 C 15,1 C 57 % 1023,6 hPa 0,0 mm 6,3 km/h (2 Bft) O-NO 0,97 h 1,1 C 8,0 km/h (2 Bft)
17.03.2016 14:00 9,6 C 16,0 C 53 % 1022,7 hPa 0,0 mm 5,2 km/h (1 Bft) N-NO 1,00 h 0,6 C 7,4 km/h (2 Bft)
17.03.2016 15:00 9,6 C 15,8 C 49 % 1021,7 hPa 0,0 mm 4,7 km/h (1 Bft) O-NO 1,00 h -0,5 C 6,1 km/h (2 Bft)
17.03.2016 16:00 8,7 C 13,1 C 53 % 1021,0 hPa 0,0 mm 3,6 km/h (1 Bft) O-NO 1,00 h -0,4 C 5,8 km/h (2 Bft)
17.03.2016 17:00 7,2 C 8,2 C 57 % 1020,6 hPa 0,0 mm 0,5 km/h (0 Bft) N-NO 0,08 h -0,8 C 0,7 km/h (0 Bft)
17.03.2016 18:00 5,3 C 5,0 C 60 % 1020,6 hPa 0,0 mm 0,8 km/h (0 Bft) S 0,00 h -1,8 C 1,1 km/h (1 Bft)
17.03.2016 19:00 2,3 C 2,1 C 71 % 1020,7 hPa 0,0 mm 3,5 km/h (1 Bft) S-SO 0,00 h -2,4 C 4,2 km/h (1 Bft)
17.03.2016 20:00 0,9 C 0,3 C 76 % 1020,6 hPa 0,0 mm 0,4 km/h (0 Bft) O-SO 0,00 h -2,8 C 0,0 km/h (0 Bft)
17.03.2016 21:00 -0,9 C -1,5 C 78 % 1020,6 hPa 0,0 mm 0,0 km/h (0 Bft) N 0,00 h -4,3 C 0,0 km/h (0 Bft)
17.03.2016 22:00 -1,6 C -2,2 C 81 % 1020,4 hPa 0,0 mm 0,0 km/h (0 Bft) N 0,00 h -4,5 C 0,0 km/h (0 Bft)
17.03.2016 23:00 -2,1 C -2,6 C 84 % 1020,0 hPa 0,0 mm 0,0 km/h (0 Bft) N 0,00 h -4,5 C 0,0 km/h (0 Bft)
18.03.2016 00:00 -2,7 C -3,2 C 84 % 1019,8 hPa 0,0 mm 0,0 km/h (0 Bft) N 0,00 h -5,0 C 0,0 km/h (0 Bft)
18.03.2016 01:00 -3,2 C -3,5 C 85 % 1019,7 hPa 0,0 mm 0,1 km/h (0 Bft) N 0,00 h -5,4 C 0,4 km/h (0 Bft)
18.03.2016 02:00 -3,3 C -3,7 C 86 % 1019,2 hPa 0,0 mm 0,0 km/h (0 Bft) N 0,00 h -5,4 C 0,0 km/h (0 Bft)
18.03.2016 03:00 -3,1 C -3,6 C 87 % 1018,7 hPa 0,0 mm 0,0 km/h (0 Bft) N 0,00 h -5,0 C 0,3 km/h (0 Bft)
18.03.2016 04:00 -3,2 C -3,7 C 88 % 1018,4 hPa 0,0 mm 0,0 km/h (0 Bft) N 0,00 h -4,9 C 0,0 km/h (0 Bft)
18.03.2016 05:00 -3,5 C -4,0 C 88 % 1018,2 hPa 0,0 mm 0,0 km/h (0 Bft) N 0,00 h -5,3 C 0,0 km/h (0 Bft)
18.03.2016 06:00 -3,3 C -3,7 C 88 % 1018,1 hPa 0,0 mm 0,1 km/h (0 Bft) N 0,00 h -5,0 C 0,3 km/h (0 Bft)
18.03.2016 07:00 -2,4 C -2,2 C 85 % 1018,4 hPa 0,0 mm 0,3 km/h (0 Bft) S 0,00 h -4,5 C 0,7 km/h (0 Bft)
18.03.2016 08:00 0,3 C 8,4 C 82 % 1018,9 hPa 0,0 mm 0,0 km/h (0 Bft) N 1,00 h -2,4 C 0,0 km/h (0 Bft)
18.03.2016 09:00 5,3 C 16,7 C 73 % 1020,3 hPa 0,0 mm 0,0 km/h (0 Bft) N 0,93 h 0,8 C 0,0 km/h (0 Bft)
18.03.2016 10:00 9,1 C 16,9 C 60 % 1020,5 hPa 0,0 mm 0,4 km/h (0 Bft) N 1,00 h 1,6 C 1,3 km/h (1 Bft)
18.03.2016 11:00 10,1 C 17,5 C 55 % 1020,6 hPa 0,0 mm 3,5 km/h (1 Bft) W 0,95 h 1,4 C 5,2 km/h (1 Bft)
18.03.2016 12:00 11,1 C 17,1 C 52 % 1020,3 hPa 0,0 mm 2,8 km/h (1 Bft) N-NO 0,75 h 1,5 C 4,0 km/h (1 Bft)
18.03.2016 13:00 12,1 C 18,0 C 47 % 1019,6 hPa 0,0 mm 6,0 km/h (2 Bft) NW 1,00 h 1,1 C 9,4 km/h (2 Bft)
18.03.2016 14:00 12,0 C 17,5 C 44 % 1018,6 hPa 0,0 mm 7,0 km/h (2 Bft) W-SW 0,87 h 0,2 C 8,6 km/h (2 Bft)
18.03.2016 15:00 11,7 C 16,4 C 44 % 1017,6 hPa 0,0 mm 7,6 km/h (2 Bft) W 1,00 h -0,2 C 8,4 km/h (2 Bft)
18.03.2016 16:00 10,7 C 13,5 C 47 % 1016,8 hPa 0,0 mm 5,0 km/h (1 Bft) W-NW 0,58 h -0,2 C 4,8 km/h (1 Bft)
18.03.2016 17:00 8,6 C 9,7 C 48 % 1016,8 hPa 0,0 mm 3,6 km/h (1 Bft) W 0,00 h -1,7 C 4,3 km/h (1 Bft)
18.03.2016 18:00 6,8 C 6,6 C 52 % 1016,9 hPa 0,0 mm 2,7 km/h (1 Bft) S-SO 0,00 h -2,3 C 3,1 km/h (1 Bft)
18.03.2016 19:00 4,0 C 3,6 C 59 % 1017,0 hPa 0,0 mm 1,7 km/h (1 Bft) S-SO 0,00 h -3,3 C 1,8 km/h (1 Bft)
18.03.2016 20:00 2,3 C 1,7 C 65 % 1017,2 hPa 0,0 mm 0,0 km/h (0 Bft) N 0,00 h -3,6 C 0,0 km/h (0 Bft)
18.03.2016 21:00 2,1 C 1,3 C 67 % 1017,5 hPa 0,0 mm 0,1 km/h (0 Bft) N 0,00 h -3,3 C 0,6 km/h (0 Bft)
18.03.2016 22:00 1,5 C 0,7 C 69 % 1017,4 hPa 0,0 mm 0,0 km/h (0 Bft) N 0,00 h -3,6 C 0,0 km/h (0 Bft)
18.03.2016 23:00 -0,5 C -1,2 C 72 % 1017,5 hPa 0,0 mm 0,0 km/h (0 Bft) N 0,00 h -5,0 C 0,0 km/h (0 Bft)
19.03.2016 00:00 -1,8 C -2,4 C 75 % 1017,6 hPa 0,0 mm 0,0 km/h (0 Bft) N 0,00 h -5,7 C 0,0 km/h (0 Bft)
19.03.2016 01:00 -1,7 C -2,2 C 77 % 1017,4 hPa 0,0 mm 0,0 km/h (0 Bft) N 0,00 h -5,1 C 0,0 km/h (0 Bft)
19.03.2016 02:00 -2,5 C -3,0 C 79 % 1017,2 hPa 0,0 mm 0,0 km/h (0 Bft) N 0,00 h -5,7 C 0,0 km/h (0 Bft)
19.03.2016 03:00 -2,8 C -3,3 C 80 % 1016,8 hPa 0,0 mm 0,0 km/h (0 Bft) N 0,00 h -5,7 C 0,0 km/h (0 Bft)
19.03.2016 04:00 -2,6 C -3,0 C 81 % 1016,4 hPa 0,0 mm 0,0 km/h (0 Bft) N 0,00 h -5,4 C 0,0 km/h (0 Bft)
19.03.2016 05:00 -1,9 C -2,3 C 81 % 1016,1 hPa 0,0 mm 0,0 km/h (0 Bft) N 0,00 h -4,7 C 0,0 km/h (0 Bft)
19.03.2016 06:00 -2,3 C -2,8 C 80 % 1016,0 hPa 0,0 mm 0,0 km/h (0 Bft) N 0,00 h -5,2 C 0,0 km/h (0 Bft)
19.03.2016 07:00 -1,2 C -0,8 C 80 % 1016,2 hPa 0,0 mm 0,0 km/h (0 Bft) N 0,17 h -4,2 C 0,0 km/h (0 Bft)
19.03.2016 08:00 2,1 C 11,4 C 75 % 1016,7 hPa 0,0 mm 0,0 km/h (0 Bft) N 1,00 h -1,9 C 0,0 km/h (0 Bft)
19.03.2016 09:00 7,1 C 17,8 C 62 % 1018,1 hPa 0,0 mm 0,0 km/h (0 Bft) N 1,00 h 0,3 C 0,0 km/h (0 Bft)
19.03.2016 10:00 9,6 C 16,4 C 54 % 1019,1 hPa 0,0 mm 6,0 km/h (2 Bft) W 1,00 h 0,8 C 8,2 km/h (2 Bft)
19.03.2016 11:00 10,7 C 17,5 C 50 % 1019,3 hPa 0,0 mm 4,8 km/h (1 Bft) W 1,00 h 0,8 C 5,5 km/h (1 Bft)
19.03.2016 12:00 11,3 C 16,4 C 47 % 1019,0 hPa 0,0 mm 6,5 km/h (2 Bft) W 0,50 h 0,5 C 8,6 km/h (2 Bft)
19.03.2016 13:00 12,4 C 18,4 C 44 % 1018,4 hPa 0,0 mm 6,0 km/h (2 Bft) W 1,00 h 0,5 C 8,5 km/h (2 Bft)
19.03.2016 14:00 13,2 C 18,2 C 40 % 1017,7 hPa 0,0 mm 7,1 km/h (2 Bft) W-NW 1,00 h -0,1 C 9,2 km/h (2 Bft)
19.03.2016 15:00 13,1 C 17,2 C 38 % 1016,9 hPa 0,0 mm 7,8 km/h (2 Bft) NW 0,83 h -1,1 C 7,9 km/h (2 Bft)
19.03.2016 16:00 11,8 C 14,5 C 41 % 1016,3 hPa 0,0 mm 6,5 km/h (2 Bft) NW 0,43 h -1,1 C 10,1 km/h (2 Bft)
19.03.2016 17:00 8,8 C 9,6 C 50 % 1016,2 hPa 0,0 mm 5,3 km/h (1 Bft) NO 0,00 h -1,1 C 6,1 km/h (2 Bft)
19.03.2016 18:00 6,4 C 6,0 C 60 % 1016,5 hPa 0,0 mm 0,6 km/h (0 Bft) SO 0,00 h -0,9 C 0,9 km/h (0 Bft)
19.03.2016 19:00 4,4 C 3,9 C 68 % 1016,9 hPa 0,0 mm 0,6 km/h (0 Bft) SO 0,00 h -1,0 C 1,0 km/h (0 Bft)
19.03.2016 20:00 2,6 C 2,1 C 74 % 1017,4 hPa 0,0 mm 0,4 km/h (0 Bft) O-SO 0,00 h -1,6 C 0,8 km/h (0 Bft)
19.03.2016 21:00 0,5 C -0,0 C 77 % 1017,6 hPa 0,0 mm 0,0 km/h (0 Bft) N 0,00 h -3,1 C 0,0 km/h (0 Bft)
19.03.2016 22:00 -0,3 C -0,8 C 80 % 1017,5 hPa 0,0 mm 0,0 km/h (0 Bft) N 0,00 h -3,4 C 0,0 km/h (0 Bft)
19.03.2016 23:00 0,4 C 0,2 C 81 % 1017,6 hPa 0,0 mm 0,8 km/h (0 Bft) NO 0,00 h -2,5 C 2,1 km/h (1 Bft)
20.03.2016 00:00 0,9 C 0,7 C 87 % 1017,5 hPa 0,0 mm 1,8 km/h (1 Bft) O-NO 0,00 h -1,1 C 3,0 km/h (1 Bft)
20.03.2016 01:00 0,9 C 0,7 C 87 % 1017,3 hPa 0,0 mm 2,1 km/h (1 Bft) NO 0,00 h -1,0 C 3,0 km/h (1 Bft)
20.03.2016 02:00 0,7 C 0,5 C 88 % 1016,8 hPa 0,0 mm 1,0 km/h (0 Bft) O-NO 0,00 h -1,0 C 2,1 km/h (1 Bft)
20.03.2016 03:00 0,5 C 0,3 C 87 % 1016,2 hPa 0,0 mm 2,4 km/h (1 Bft) SW 0,00 h -1,3 C 3,1 km/h (1 Bft)
20.03.2016 04:00 0,0 C -0,1 C 86 % 1016,1 hPa 0,0 mm 2,0 km/h (1 Bft) W-SW 0,00 h -2,0 C 2,1 km/h (1 Bft)
20.03.2016 05:00 -0,8 C -0,9 C 83 % 1016,0 hPa 0,0 mm 1,4 km/h (1 Bft) SW 0,00 h -3,3 C 1,4 km/h (1 Bft)
20.03.2016 06:00 -1,2 C -1,3 C 85 % 1016,1 hPa 0,0 mm 0,7 km/h (0 Bft) O-NO 0,00 h -3,4 C 0,6 km/h (0 Bft)
20.03.2016 07:00 -1,3 C -1,0 C 85 % 1016,2 hPa 0,0 mm 1,6 km/h (1 Bft) NW 0,00 h -3,5 C 1,8 km/h (1 Bft)
20.03.2016 08:00 -0,8 C 0,1 C 85 % 1016,4 hPa 0,0 mm 2,8 km/h (1 Bft) NW 0,00 h -3,0 C 3,6 km/h (1 Bft)
20.03.2016 09:00 -0,3 C 1,7 C 85 % 1016,7 hPa 0,0 mm 4,2 km/h (1 Bft) NW 0,00 h -2,5 C 5,5 km/h (1 Bft)
20.03.2016 10:00 1,4 C 5,9 C 84 % 1016,7 hPa 0,0 mm 2,4 km/h (1 Bft) N-NO 0,75 h -0,9 C 3,1 km/h (1 Bft)
20.03.2016 11:00 4,6 C 11,5 C 78 % 1017,1 hPa 0,0 mm 4,4 km/h (1 Bft) O-NO 1,00 h 1,0 C 6,8 km/h (2 Bft)
20.03.2016 12:00 7,7 C 13,1 C 68 % 1017,6 hPa 0,0 mm 4,4 km/h (1 Bft) O-NO 0,75 h 2,1 C 5,5 km/h (1 Bft)
20.03.2016 13:00 10,2 C 17,2 C 59 % 1016,9 hPa 0,0 mm 3,4 km/h (1 Bft) SW 1,00 h 2,6 C 5,6 km/h (1 Bft)
20.03.2016 14:00 11,5 C 16,6 C 56 % 1015,9 hPa 0,0 mm 6,8 km/h (2 Bft) N-NW 1,00 h 3,1 C 9,2 km/h (2 Bft)
20.03.2016 15:00 11,2 C 16,2 C 54 % 1015,0 hPa 0,0 mm 6,7 km/h (2 Bft) W-NW 1,00 h 2,3 C 8,1 km/h (2 Bft)
20.03.2016 16:00 9,8 C 12,6 C 57 % 1014,3 hPa 0,0 mm 5,6 km/h (1 Bft) N-NO 0,50 h 1,6 C 6,6 km/h (2 Bft)
20.03.2016 17:00 7,8 C 8,4 C 62 % 1014,1 hPa 0,0 mm 2,5 km/h (1 Bft) O-NO 0,00 h 0,9 C 2,2 km/h (1 Bft)
20.03.2016 18:00 5,6 C 5,2 C 72 % 1014,2 hPa 0,0 mm 0,2 km/h (0 Bft) N 0,00 h 0,9 C 0,4 km/h (0 Bft)
20.03.2016 19:00 3,9 C 3,5 C 77 % 1014,4 hPa 0,0 mm 0,1 km/h (0 Bft) S-SO 0,00 h 0,2 C 0,4 km/h (0 Bft)
20.03.2016 20:00 3,5 C 3,5 C 78 % 1014,9 hPa 0,0 mm 1,1 km/h (1 Bft) S-SO 0,00 h 0,1 C 1,2 km/h (1 Bft)
20.03.2016 21:00 3,2 C 2,9 C 79 % 1015,2 hPa 0,0 mm 0,4 km/h (0 Bft) O-NO 0,00 h -0,2 C 0,5 km/h (0 Bft)
20.03.2016 22:00 2,5 C 2,3 C 77 % 1015,4 hPa 0,0 mm 0,5 km/h (0 Bft) O-NO 0,00 h -1,1 C 0,4 km/h (0 Bft)
20.03.2016 23:00 0,7 C 0,1 C 79 % 1015,6 hPa 0,0 mm 2,5 km/h (1 Bft) O-NO 0,00 h -2,5 C 3,5 km/h (1 Bft)
Min-Datum _ 17.03.16 17.03.16 19.03.16 20.03.16 - 20.03.16 - - 17.03.16 20.03.16
_ Min-Zeit 06:15 06:15 16:00 18:00 - 23:35 - - 06:05 23:20
Minimum _ -6,9 C -7,3 C 37 % 1014,0 hPa - 0,0 km/h (0 Bft) - - -8,7 C 0,0 km/h (0 Bft)
Max-Datum _ 19.03.16 19.03.16 17.03.16 17.03.16 16.03.16 14.03.16 - 20.03.16 17.03.16 14.03.16
_ Max-Zeit 14:45 09:40 01:00 11:30 13:30 08:25 - 16:00 10:35 03:55
Maximum _ 13,6 C 19,6 C 92 % 1024,5 hPa 2,7 mm 17,9 km/h
O-NO (3 Bft)
- 0,08 h 3,6 C 39,9 km/h
O-NO (6 Bft)
Durchschnitt _ 1,5 C 2,9 C 76 % 1019,2 hPa #8,9 mm 3,7 km/h (1 Bft) O-NO #32:10 h -2,6 C 4,9 km/h (1 Bft)